Britt, IA

10:11 PM CDT on April 18, 2015 (GMT -0500)
273 1st ST SW | | Change Station
CLOSE
Current Station
Personal Weather Station
Location: Britt, IA
Elevation: 1214 ft
Nearby Weather Stations

Elev 1214 ft 43.10 °N, 93.81 °W | Updated 25 seconds ago

Rain
Rain
55.6 °F
Feels Like 55.6 °F
N
8.9
Wind Variable Wind from NE
Gusts 9.0 mph

Today
High -- | Low -- °F
--% Chance of Precip.
Yesterday
High -- | Low -- °F
Precip. -- in
6:28 AM 8:01 PM
New Moon, 0% visible
Pressure 29.87 in
Visibility 10.0 miles
Clouds Scattered Clouds 4300 ft
Mostly Cloudy 5000 ft
Overcast 9500 ft
Dew Point 54 °F
Humidity 93%
Rainfall 1.23 in
Snow Depth Not available.
UV 0 out of 12
Pollen 6.50 out of 12
Air Quality Not available.
Flu Activity Local Activity
METAR KFXY 190255Z AUTO 10011G15KT 10SM RA SCT043 BKN050 OVC095 12/12 A2987 RMK AO2 P0004

More Conditions Fewer Conditions

Pressure 29.87 in
Visibility 10.0 miles
Clouds Scattered Clouds 4300 ft
Mostly Cloudy 5000 ft
Overcast 9500 ft
Dew Point 54 °F
Humidity 93%
Rainfall 1.23 in
Snow Depth Not available.
UV 0 out of 12
Pollen 6.50 out of 12
Air Quality Not available.
Flu Activity Local Activity
METAR KFXY 190255Z AUTO 10011G15KT 10SM RA SCT043 BKN050 OVC095 12/12 A2987 RMK AO2 P0004

More Conditions Fewer Conditions

10-Day Weather Forecast

Almanac

Astronomy

Apr. 18, 2015 Rise Set
Actual Time
Civil Twilight
Nautical Twilight
Astronomical Twilight
Moon
Length of Visible Light
Length of Day
Tomorrow will be .
, % of the Moon is Illuminated

Today's Extremes

State Highs State Lows

Community

WunderPhotos

Upload Photos

1,814,669 photos uploaded!

WunderBlogs® & News

Nearby

Air Quality

  Air Quality AQ Index Pollutant
Not available.

Snow Depth

Station Depth Elevation

Earthquake Activity

City Distance Mag. Time & Date
Minimum magnitude displayed is 2.5.

Coastal Water Temperatures

Place Temperature

Stations

Nearby Weather Stations

Station Location Temp. Windchill Dew Point Humidity Wind Precip. Elev Updated Type